createdAt,value
2022-09-14T00:00:11.149Z,88.52
2022-09-14T00:02:37.791Z,89.12
2022-09-14T00:05:04.431Z,88.20
2022-09-14T00:07:30.878Z,88.31
2022-09-14T00:09:57.290Z,88.70
2022-09-14T00:12:25.008Z,89.24
2022-09-14T00:14:51.494Z,88.61
2022-09-14T00:17:18.031Z,88.91
2022-09-14T00:19:44.494Z,88.67
2022-09-14T00:22:10.956Z,88.49
2022-09-14T00:24:37.387Z,88.02
2022-09-14T00:27:04.042Z,87.82
2022-09-14T00:29:30.897Z,88.87
2022-09-14T00:31:59.763Z,89.13
2022-09-14T00:34:27.205Z,90.40
2022-09-14T00:36:54.297Z,90.60
2022-09-14T00:39:21.769Z,90.12
2022-09-14T00:41:48.716Z,89.59
2022-09-14T00:44:15.141Z,90.46
2022-09-14T00:46:43.305Z,90.33
2022-09-14T00:49:25.584Z,90.22
2022-09-14T00:52:03.874Z,91.18
2022-09-14T00:54:30.646Z,91.56
2022-09-14T00:57:01.512Z,91.64
2022-09-14T00:59:30.046Z,91.34
2022-09-14T01:01:56.853Z,91.25
2022-09-14T01:04:24.130Z,91.99
2022-09-14T01:07:02.823Z,91.66
2022-09-14T01:09:38.131Z,90.34
2022-09-14T01:12:20.719Z,90.84
2022-09-14T01:15:05.988Z,90.30
2022-09-14T01:17:38.505Z,89.99
2022-09-14T01:20:11.124Z,90.30
2022-09-14T01:22:44.481Z,90.99
2022-09-14T01:25:23.372Z,90.76
2022-09-14T01:27:51.654Z,91.21
2022-09-14T01:30:20.661Z,90.27
2022-09-14T01:33:08.349Z,90.51
2022-09-14T01:35:40.677Z,90.83
2022-09-14T01:38:26.934Z,90.04
2022-09-14T01:40:54.543Z,89.85
2022-09-14T01:43:30.082Z,89.39
2022-09-14T01:45:59.672Z,91.08
2022-09-14T01:48:33.069Z,91.87
2022-09-14T01:51:00.945Z,91.00
2022-09-14T01:53:34.699Z,92.25
2022-09-14T01:56:15.178Z,92.30
2022-09-14T01:58:47.749Z,92.35
2022-09-14T02:01:19.193Z,91.82
2022-09-14T02:03:52.000Z,90.81
2022-09-14T02:06:25.110Z,91.58
2022-09-14T02:08:52.178Z,92.23
2022-09-14T02:11:18.739Z,91.63
2022-09-14T02:13:45.218Z,93.15
2022-09-14T02:16:12.279Z,94.08
2022-09-14T02:18:39.764Z,93.71
2022-09-14T02:21:10.683Z,92.93
2022-09-14T02:23:37.606Z,93.20
2022-09-14T02:26:04.705Z,93.26
2022-09-14T02:28:31.241Z,92.15
2022-09-14T02:31:19.405Z,91.75
2022-09-14T02:33:52.089Z,92.62
2022-09-14T02:36:25.596Z,92.92
2022-09-14T02:39:15.303Z,92.09
2022-09-14T02:41:42.076Z,91.94
2022-09-14T02:44:27.641Z,93.23
2022-09-14T02:47:06.096Z,93.05
2022-09-14T02:49:58.673Z,93.32
2022-09-14T02:52:32.201Z,93.14
2022-09-14T02:55:02.369Z,93.90
2022-09-14T02:57:28.805Z,94.39
2022-09-14T02:59:55.398Z,93.45
2022-09-14T03:02:22.090Z,93.27
2022-09-14T03:04:48.700Z,93.13
2022-09-14T03:07:15.187Z,92.96
2022-09-14T03:09:41.621Z,94.05
2022-09-14T03:12:08.059Z,95.58
2022-09-14T03:14:34.728Z,96.28
2022-09-14T03:17:01.160Z,96.36
2022-09-14T03:19:27.576Z,96.33
2022-09-14T03:21:54.018Z,95.54
2022-09-14T03:24:20.516Z,94.69
2022-09-14T03:26:47.281Z,94.39
2022-09-14T03:29:13.678Z,93.99
2022-09-14T03:31:40.225Z,93.49
2022-09-14T03:34:06.846Z,95.18
2022-09-14T03:36:33.311Z,96.25
2022-09-14T03:39:01.682Z,96.94
2022-09-14T03:41:28.533Z,97.24
2022-09-14T03:43:55.210Z,97.65
2022-09-14T03:46:23.282Z,96.74
2022-09-14T03:48:50.009Z,97.00
2022-09-14T03:51:16.863Z,96.54
2022-09-14T03:53:44.789Z,96.65
2022-09-14T03:56:12.901Z,97.59
2022-09-14T03:58:39.543Z,97.41
2022-09-14T04:01:14.593Z,97.32
2022-09-14T04:03:41.585Z,97.41
2022-09-14T04:06:08.399Z,97.56
2022-09-14T04:08:38.164Z,96.77
2022-09-14T04:11:08.610Z,97.25
2022-09-14T04:13:35.058Z,96.53
2022-09-14T04:16:02.036Z,96.10
2022-09-14T04:18:28.593Z,96.00
2022-09-14T04:20:58.532Z,95.02
2022-09-14T04:23:25.489Z,96.60
2022-09-14T04:25:52.577Z,97.17
2022-09-14T04:28:20.498Z,96.25
2022-09-14T04:30:57.269Z,95.85
2022-09-14T04:33:24.210Z,95.91
2022-09-14T04:35:58.181Z,95.75
2022-09-14T04:38:24.633Z,95.99
2022-09-14T04:40:51.078Z,95.13
2022-09-14T04:43:17.485Z,96.50
2022-09-14T04:45:44.424Z,96.65
2022-09-14T04:48:11.088Z,96.08
2022-09-14T04:50:37.748Z,95.71
2022-09-14T04:53:04.391Z,95.61
2022-09-14T04:55:30.889Z,95.86
2022-09-14T04:57:57.324Z,95.92
2022-09-14T05:00:23.787Z,96.85
2022-09-14T05:02:50.353Z,97.19
2022-09-14T05:05:16.789Z,97.01
2022-09-14T05:07:43.192Z,96.65
2022-09-14T05:10:09.736Z,96.32
2022-09-14T05:12:36.146Z,96.22
2022-09-14T05:15:02.657Z,95.63
2022-09-14T05:17:29.147Z,96.41
2022-09-14T05:19:55.631Z,95.85
2022-09-14T05:22:22.349Z,95.40
2022-09-14T05:24:48.845Z,95.82
2022-09-14T05:27:15.279Z,95.18
2022-09-14T05:29:41.944Z,94.95
2022-09-14T05:32:08.400Z,94.99
2022-09-14T05:34:34.874Z,95.03
2022-09-14T05:37:01.306Z,94.90
2022-09-14T05:39:27.803Z,93.00
2022-09-14T05:41:54.270Z,92.12
2022-09-14T05:44:20.738Z,92.22
2022-09-14T05:46:47.229Z,92.04
2022-09-14T05:49:13.771Z,91.38
2022-09-14T05:51:40.216Z,91.20
2022-09-14T05:54:11.370Z,91.16
2022-09-14T05:56:38.014Z,90.60
2022-09-14T05:59:04.445Z,90.57
2022-09-14T06:01:32.658Z,89.41
2022-09-14T06:04:00.454Z,87.47
2022-09-14T06:06:26.971Z,86.95
2022-09-14T06:08:55.054Z,85.79
2022-09-14T06:11:23.593Z,85.32
2022-09-14T06:13:50.552Z,85.82
2022-09-14T06:16:18.905Z,87.01
2022-09-14T06:18:45.939Z,83.51
2022-09-14T06:21:16.744Z,83.63
2022-09-14T06:23:44.038Z,84.09
2022-09-14T06:26:10.823Z,84.40
2022-09-14T06:28:37.311Z,83.95
2022-09-14T06:31:04.522Z,83.19
2022-09-14T06:33:31.492Z,83.20
2022-09-14T06:35:59.171Z,81.03
2022-09-14T06:38:26.481Z,81.71
2022-09-14T06:40:54.105Z,83.08
2022-09-14T06:43:20.604Z,82.62
2022-09-14T06:45:55.105Z,81.20
2022-09-14T06:48:21.591Z,80.43
2022-09-14T06:50:48.051Z,80.47
2022-09-14T06:53:14.526Z,80.34
2022-09-14T06:55:41.390Z,80.21
2022-09-14T06:58:09.469Z,79.50
2022-09-14T07:00:36.424Z,77.07
2022-09-14T07:03:03.001Z,76.81
2022-09-14T07:05:30.921Z,74.02
2022-09-14T07:07:57.681Z,74.58
2022-09-14T07:10:28.072Z,75.86
2022-09-14T07:12:54.932Z,73.93
2022-09-14T07:15:21.769Z,71.90
2022-09-14T07:17:48.185Z,68.77
2022-09-14T07:20:15.617Z,68.34
2022-09-14T07:22:42.349Z,63.45
2022-09-14T07:25:09.731Z,63.08
2022-09-14T07:27:38.658Z,64.33
2022-09-14T07:30:06.256Z,63.48
2022-09-14T07:32:32.714Z,61.65
2022-09-14T07:34:59.136Z,61.83
2022-09-14T07:37:25.611Z,60.15
2022-09-14T07:39:52.171Z,62.14
2022-09-14T07:42:18.608Z,65.13
2022-09-14T07:44:45.126Z,65.61
2022-09-14T07:47:11.694Z,64.53
2022-09-14T07:49:38.145Z,65.57
2022-09-14T07:52:04.610Z,63.03
2022-09-14T07:54:31.029Z,62.49
2022-09-14T07:56:57.840Z,63.35
2022-09-14T07:59:35.487Z,63.53
2022-09-14T08:02:02.495Z,62.01
2022-09-14T08:04:28.943Z,61.52
2022-09-14T08:06:55.324Z,61.88
2022-09-14T08:09:21.769Z,60.67
2022-09-14T08:11:48.156Z,62.19
2022-09-14T08:14:15.494Z,63.53
2022-09-14T08:16:42.139Z,60.38
2022-09-14T08:19:12.375Z,57.94
2022-09-14T08:21:41.718Z,57.29
2022-09-14T08:24:12.779Z,57.89
2022-09-14T08:26:40.774Z,56.97
2022-09-14T08:29:08.074Z,56.21
2022-09-14T08:31:38.943Z,57.14
2022-09-14T08:34:06.034Z,56.42
2022-09-14T08:36:33.648Z,60.15
2022-09-14T08:39:00.753Z,59.29
2022-09-14T08:41:29.072Z,60.46
2022-09-14T08:43:59.515Z,60.92
2022-09-14T08:46:29.885Z,59.16
2022-09-14T08:48:56.530Z,59.01
2022-09-14T08:51:23.344Z,60.10
2022-09-14T08:53:50.896Z,59.96
2022-09-14T08:56:19.049Z,57.78
2022-09-14T08:58:48.752Z,56.59
2022-09-14T09:01:28.602Z,55.80
2022-09-14T09:03:55.032Z,55.98
2022-09-14T09:06:36.501Z,55.17
2022-09-14T09:09:02.962Z,55.36
2022-09-14T09:11:34.542Z,55.80
2022-09-14T09:14:05.181Z,57.81
2022-09-14T09:16:31.661Z,57.18
2022-09-14T09:19:00.290Z,55.67
2022-09-14T09:21:35.463Z,54.02
2022-09-14T09:24:24.209Z,52.83
2022-09-14T09:26:50.693Z,51.50
2022-09-14T09:29:17.142Z,53.59
2022-09-14T09:32:03.874Z,53.51
2022-09-14T09:34:56.190Z,52.12
2022-09-14T09:37:51.756Z,53.31
2022-09-14T09:40:40.612Z,54.33
2022-09-14T09:43:09.229Z,52.93
2022-09-14T09:45:55.400Z,53.64
2022-09-14T09:48:27.807Z,53.40
2022-09-14T09:51:00.132Z,52.11
2022-09-14T09:53:27.223Z,51.30
2022-09-14T09:55:53.973Z,51.39
2022-09-14T09:58:31.400Z,50.92
2022-09-14T10:01:02.276Z,50.21
2022-09-14T10:03:34.003Z,50.47
2022-09-14T10:06:05.543Z,48.37
2022-09-14T10:08:34.898Z,47.72
2022-09-14T10:11:02.829Z,46.97
2022-09-14T10:13:34.402Z,45.43
2022-09-14T10:16:15.386Z,44.74
2022-09-14T10:18:51.962Z,45.54
2022-09-14T10:21:19.958Z,45.70
2022-09-14T10:23:46.594Z,43.65
2022-09-14T10:26:17.672Z,44.77
2022-09-14T10:28:45.706Z,45.00
2022-09-14T10:31:15.239Z,42.91
2022-09-14T10:33:42.196Z,44.10
2022-09-14T10:36:11.695Z,43.66
2022-09-14T10:38:41.357Z,42.05
2022-09-14T10:41:13.867Z,40.80
2022-09-14T10:43:52.347Z,40.37
2022-09-14T10:46:25.396Z,41.88
2022-09-14T10:49:10.402Z,40.54
2022-09-14T10:51:49.285Z,41.18
2022-09-14T10:54:34.355Z,41.26
2022-09-14T10:57:17.754Z,42.00
2022-09-14T10:59:55.160Z,40.44
2022-09-14T11:02:21.709Z,42.29
2022-09-14T11:05:01.391Z,40.61
2022-09-14T11:07:47.610Z,42.70
2022-09-14T11:10:23.138Z,38.12
2022-09-14T11:13:04.675Z,38.73
2022-09-14T11:15:37.226Z,39.58
2022-09-14T11:18:22.372Z,38.60
2022-09-14T11:20:54.898Z,38.89
2022-09-14T11:23:24.336Z,39.59
2022-09-14T11:25:53.830Z,38.49
2022-09-14T11:28:25.709Z,37.13
2022-09-14T11:31:08.864Z,38.88
2022-09-14T11:33:38.982Z,37.78
2022-09-14T11:36:17.333Z,36.71
2022-09-14T11:38:47.668Z,35.76
2022-09-14T11:41:26.258Z,36.88
2022-09-14T11:44:10.721Z,35.88
2022-09-14T11:46:39.581Z,36.43
2022-09-14T11:49:39.885Z,35.32
2022-09-14T11:52:10.110Z,35.88
2022-09-14T11:54:42.426Z,37.08
2022-09-14T11:57:17.530Z,35.82
2022-09-14T11:59:44.313Z,35.44
2022-09-14T12:02:31.119Z,35.90
2022-09-14T12:05:06.682Z,34.89
2022-09-14T12:07:50.070Z,35.25
2022-09-14T12:10:19.471Z,35.76
2022-09-14T12:12:51.115Z,35.91
2022-09-14T12:15:26.374Z,35.19
2022-09-14T12:17:55.122Z,36.96
2022-09-14T12:20:43.333Z,36.24
2022-09-14T12:23:09.751Z,35.27
2022-09-14T12:25:37.749Z,35.72
2022-09-14T12:28:24.115Z,35.15
2022-09-14T12:30:53.986Z,35.34
2022-09-14T12:33:32.714Z,34.14
2022-09-14T12:36:17.543Z,35.24
2022-09-14T12:38:50.054Z,34.87
2022-09-14T12:41:16.528Z,35.22
2022-09-14T12:43:48.870Z,35.44
2022-09-14T12:46:21.511Z,37.26
2022-09-14T12:48:48.125Z,37.22
2022-09-14T12:51:32.752Z,37.32
2022-09-14T12:54:02.152Z,37.70
2022-09-14T12:56:35.073Z,36.94
2022-09-14T12:59:01.578Z,36.88
2022-09-14T13:01:34.144Z,37.02
2022-09-14T13:04:02.104Z,38.14
2022-09-14T13:06:40.428Z,38.22
2022-09-14T13:09:13.400Z,37.59
2022-09-14T13:11:41.171Z,36.33
2022-09-14T13:14:13.860Z,36.77
2022-09-14T13:16:44.259Z,35.70
2022-09-14T13:19:27.438Z,35.60
2022-09-14T13:21:55.626Z,35.36
2022-09-14T13:24:23.847Z,35.11
2022-09-14T13:26:50.482Z,34.86
2022-09-14T13:29:17.112Z,36.56
2022-09-14T13:31:44.881Z,35.42
2022-09-14T13:34:25.603Z,35.56
2022-09-14T13:36:52.194Z,33.64
2022-09-14T13:39:40.110Z,35.88
2022-09-14T13:42:06.862Z,34.72
2022-09-14T13:44:34.817Z,35.08
2022-09-14T13:47:02.713Z,35.78
2022-09-14T13:49:29.572Z,34.47
2022-09-14T13:52:16.862Z,34.82
2022-09-14T13:54:43.649Z,34.45
2022-09-14T13:57:17.254Z,33.02
2022-09-14T14:00:02.541Z,33.58
2022-09-14T14:02:32.856Z,34.70
2022-09-14T14:04:59.626Z,32.23
2022-09-14T14:07:36.377Z,32.19
2022-09-14T14:10:04.102Z,32.83
2022-09-14T14:12:33.397Z,33.28
2022-09-14T14:15:01.111Z,33.86
2022-09-14T14:17:27.654Z,33.14
2022-09-14T14:19:55.495Z,32.37
2022-09-14T14:22:27.131Z,32.64
2022-09-14T14:27:44.814Z,33.25
2022-09-14T14:30:18.786Z,32.40
2022-09-14T14:32:51.812Z,33.97
2022-09-14T14:35:22.263Z,33.49
2022-09-14T14:37:48.966Z,33.20
2022-09-14T14:40:16.032Z,35.75
2022-09-14T14:42:42.835Z,33.59
2022-09-14T14:45:13.694Z,34.54
2022-09-14T14:47:40.652Z,34.01
2022-09-14T14:50:14.061Z,33.96
2022-09-14T14:52:40.605Z,34.30
2022-09-14T14:55:08.675Z,34.41
2022-09-14T14:57:35.429Z,35.57
2022-09-14T15:00:02.153Z,34.43
2022-09-14T15:02:28.669Z,35.44
2022-09-14T15:04:55.166Z,35.26
2022-09-14T15:07:21.645Z,36.37
2022-09-14T15:09:48.221Z,35.80
2022-09-14T15:12:14.766Z,35.15
2022-09-14T15:14:41.346Z,35.87
2022-09-14T15:17:07.994Z,35.87
2022-09-14T15:19:34.562Z,36.33
2022-09-14T15:22:01.849Z,36.41
2022-09-14T15:24:28.987Z,38.07
2022-09-14T15:26:55.727Z,41.29
2022-09-14T15:29:22.202Z,43.17
2022-09-14T15:31:48.694Z,43.76
2022-09-14T15:34:15.176Z,43.29
2022-09-14T15:36:43.473Z,44.00
2022-09-14T15:39:11.804Z,45.90
2022-09-14T15:41:38.614Z,48.39
2022-09-14T15:44:05.433Z,48.87
2022-09-14T15:46:32.061Z,50.85
2022-09-14T15:48:59.048Z,52.43
2022-09-14T15:51:25.491Z,52.85
2022-09-14T15:53:52.974Z,52.32
2022-09-14T15:56:19.477Z,53.66
2022-09-14T15:58:48.123Z,58.66
2022-09-14T16:01:16.060Z,56.49
2022-09-14T16:03:42.771Z,56.90
2022-09-14T16:06:09.926Z,56.33
2022-09-14T16:08:37.195Z,56.34
2022-09-14T16:11:04.445Z,57.43
2022-09-14T16:13:31.403Z,53.88
2022-09-14T16:16:04.345Z,55.62
2022-09-14T16:18:30.852Z,50.80
2022-09-14T16:21:02.798Z,52.02
2022-09-14T16:23:29.290Z,50.67
2022-09-14T16:25:55.707Z,57.64
2022-09-14T16:28:22.235Z,58.75
2022-09-14T16:30:48.666Z,61.08
2022-09-14T16:33:15.914Z,59.67
2022-09-14T16:35:42.330Z,59.37
2022-09-14T16:38:08.846Z,60.38
2022-09-14T16:40:38.999Z,61.41
2022-09-14T16:43:08.715Z,62.73
2022-09-14T16:45:35.214Z,63.52
2022-09-14T16:48:01.822Z,65.18
2022-09-14T16:50:28.256Z,65.49
2022-09-14T16:52:54.683Z,64.36
2022-09-14T16:55:21.212Z,63.98
2022-09-14T16:57:47.673Z,64.80
2022-09-14T17:00:14.328Z,62.72
2022-09-14T17:02:40.820Z,61.35
2022-09-14T17:05:07.757Z,63.08
2022-09-14T17:07:34.252Z,61.80
2022-09-14T17:10:00.701Z,62.96
2022-09-14T17:12:27.266Z,63.67
2022-09-14T17:14:53.738Z,58.77
2022-09-14T17:17:20.918Z,56.83
2022-09-14T17:19:47.357Z,55.05
2022-09-14T17:22:14.290Z,53.85
2022-09-14T17:24:40.845Z,54.29
2022-09-14T17:27:07.375Z,56.42
2022-09-14T17:29:36.784Z,58.22
2022-09-14T17:32:03.267Z,61.59
2022-09-14T17:34:29.804Z,60.43
2022-09-14T17:36:56.246Z,59.62
2022-09-14T17:39:22.683Z,59.06
2022-09-14T17:41:49.128Z,61.44
2022-09-14T17:44:16.023Z,62.74
2022-09-14T17:46:51.735Z,65.04
2022-09-14T17:49:20.760Z,63.89
2022-09-14T17:51:48.129Z,65.56
2022-09-14T17:54:14.551Z,66.29
2022-09-14T17:56:41.016Z,66.59
2022-09-14T17:59:09.968Z,67.35
2022-09-14T18:01:36.429Z,68.07
2022-09-14T18:04:04.978Z,67.35
2022-09-14T18:06:32.645Z,67.86
2022-09-14T18:09:00.429Z,67.25
2022-09-14T18:11:27.025Z,67.69
2022-09-14T18:13:53.522Z,66.95
2022-09-14T18:16:21.485Z,67.43
2022-09-14T18:18:48.267Z,62.86
2022-09-14T18:21:16.879Z,61.60
2022-09-14T18:23:43.799Z,59.26
2022-09-14T18:26:10.277Z,59.12
2022-09-14T18:28:36.757Z,59.16
2022-09-14T18:31:04.813Z,59.89
2022-09-14T18:33:31.430Z,58.53
2022-09-14T18:35:57.905Z,59.68
2022-09-14T18:38:24.694Z,59.67
2022-09-14T18:40:51.161Z,59.06
2022-09-14T18:43:17.612Z,59.20
2022-09-14T18:45:44.814Z,58.99
2022-09-14T18:48:11.740Z,58.30
2022-09-14T18:50:39.032Z,58.03
2022-09-14T18:53:05.661Z,58.67
2022-09-14T18:55:33.170Z,59.34
2022-09-14T18:58:00.125Z,58.67
2022-09-14T19:00:26.523Z,58.83
2022-09-14T19:02:53.822Z,59.19
2022-09-14T19:05:20.946Z,59.02
2022-09-14T19:07:47.553Z,60.10
2022-09-14T19:10:14.369Z,59.76
2022-09-14T19:12:41.372Z,59.61
2022-09-14T19:15:08.266Z,59.79
2022-09-14T19:17:34.672Z,59.41
2022-09-14T19:20:01.202Z,59.33
2022-09-14T19:22:28.777Z,59.08
2022-09-14T19:24:55.209Z,59.12
2022-09-14T19:27:21.666Z,58.38
2022-09-14T19:29:48.088Z,58.75
2022-09-14T19:32:14.554Z,57.96
2022-09-14T19:34:41.089Z,58.17
2022-09-14T19:37:07.558Z,58.49
2022-09-14T19:39:34.013Z,58.03
2022-09-14T19:42:00.432Z,57.82
2022-09-14T19:44:26.933Z,57.27
2022-09-14T19:46:53.405Z,57.53
2022-09-14T19:49:22.429Z,56.92
2022-09-14T19:51:48.942Z,56.25
2022-09-14T19:54:15.826Z,56.59
2022-09-14T19:56:42.541Z,55.87
2022-09-14T19:59:09.299Z,57.08
2022-09-14T20:01:37.328Z,57.17
2022-09-14T20:04:04.891Z,57.50
2022-09-14T20:06:32.895Z,56.36
2022-09-14T20:09:01.464Z,56.72
2022-09-14T20:11:28.851Z,58.62
2022-09-14T20:13:56.442Z,59.38
2022-09-14T20:16:24.792Z,60.29
2022-09-14T20:18:51.973Z,61.03
2022-09-14T20:21:20.101Z,62.05
2022-09-14T20:24:11.496Z,62.55
2022-09-14T20:26:33.427Z,63.10
2022-09-14T20:29:01.216Z,63.81
2022-09-14T20:31:28.561Z,63.13
2022-09-14T20:33:55.831Z,62.45
2022-09-14T20:36:23.530Z,61.79
2022-09-14T20:38:54.443Z,64.48
2022-09-14T20:41:21.914Z,65.84
2022-09-14T20:43:49.082Z,66.92
2022-09-14T20:46:23.351Z,67.93
2022-09-14T20:48:50.288Z,70.23
2022-09-14T20:51:20.697Z,71.30
2022-09-14T20:53:47.999Z,72.16
2022-09-14T20:56:15.843Z,71.30
2022-09-14T20:58:42.454Z,70.70
2022-09-14T21:01:13.603Z,70.36
2022-09-14T21:03:42.238Z,69.75
2022-09-14T21:06:10.270Z,68.72
2022-09-14T21:08:37.498Z,68.44
2022-09-14T21:11:06.205Z,68.61
2022-09-14T21:13:33.379Z,68.68
2022-09-14T21:16:07.250Z,68.04
2022-09-14T21:18:33.978Z,68.42
2022-09-14T21:21:04.003Z,67.60
2022-09-14T21:23:30.449Z,67.65
2022-09-14T21:25:56.918Z,67.15
2022-09-14T21:28:24.207Z,67.23
2022-09-14T21:30:50.689Z,68.02
2022-09-14T21:33:17.361Z,68.55
2022-09-14T21:35:43.982Z,69.99
2022-09-14T21:38:11.141Z,70.16
2022-09-14T21:40:37.597Z,70.92
2022-09-14T21:43:04.042Z,71.40
2022-09-14T21:45:30.516Z,71.47
2022-09-14T21:47:56.915Z,71.95
2022-09-14T21:50:23.744Z,71.97
2022-09-14T21:52:50.168Z,72.53
2022-09-14T21:55:16.574Z,72.95
2022-09-14T21:57:43.062Z,72.63
2022-09-14T22:00:10.750Z,72.90
2022-09-14T22:02:37.293Z,72.96
2022-09-14T22:05:03.939Z,72.34
2022-09-14T22:07:30.384Z,72.21
2022-09-14T22:09:56.871Z,72.15
2022-09-14T22:12:23.349Z,72.21
2022-09-14T22:14:49.807Z,71.74
2022-09-14T22:17:17.868Z,71.67
2022-09-14T22:19:44.945Z,70.98
2022-09-14T22:22:11.358Z,68.43
2022-09-14T22:24:38.890Z,69.80
2022-09-14T22:27:09.549Z,71.18
2022-09-14T22:29:36.673Z,71.84
2022-09-14T22:32:04.293Z,72.11
2022-09-14T22:34:30.936Z,71.36
2022-09-14T22:36:57.458Z,71.12
2022-09-14T22:39:23.947Z,71.26
2022-09-14T22:41:50.656Z,71.09
2022-09-14T22:44:17.053Z,72.16
2022-09-14T22:46:43.722Z,72.68
2022-09-14T22:49:10.217Z,72.47
2022-09-14T22:51:36.813Z,72.16
2022-09-14T22:54:03.945Z,72.88
2022-09-14T22:56:31.941Z,71.39
2022-09-14T22:58:58.492Z,69.42
2022-09-14T23:01:26.606Z,70.84
2022-09-14T23:03:58.323Z,71.62
2022-09-14T23:06:51.121Z,72.29
2022-09-14T23:09:20.272Z,72.19
2022-09-14T23:11:46.991Z,74.15
2022-09-14T23:14:14.243Z,74.29
2022-09-14T23:16:41.562Z,74.26
2022-09-14T23:19:08.360Z,75.29
2022-09-14T23:21:35.331Z,76.83
2022-09-14T23:24:03.609Z,76.25
2022-09-14T23:26:30.515Z,77.21
2022-09-14T23:29:01.388Z,77.38
2022-09-14T23:31:29.153Z,75.04
2022-09-14T23:33:56.621Z,77.79
2022-09-14T23:36:23.538Z,82.10
2022-09-14T23:38:50.514Z,83.25
2022-09-14T23:41:17.582Z,84.55
2022-09-14T23:43:44.166Z,84.42
2022-09-14T23:46:10.946Z,85.09
2022-09-14T23:48:37.571Z,83.34
2022-09-14T23:51:04.875Z,83.70
2022-09-14T23:53:31.528Z,83.74
2022-09-14T23:55:58.402Z,85.11
2022-09-14T23:58:25.275Z,86.27
